createdAt,value
2022-11-29T00:01:32.642Z,15.60
2022-11-29T00:03:59.569Z,16.57
2022-11-29T00:06:32.034Z,16.43
2022-11-29T00:09:01.034Z,15.37
2022-11-29T00:11:49.235Z,16.27
2022-11-29T00:14:18.079Z,16.23
2022-11-29T00:16:45.139Z,15.53
2022-11-29T00:19:13.613Z,15.57
2022-11-29T00:21:40.082Z,16.13
2022-11-29T00:24:06.831Z,16.80
2022-11-29T00:26:33.191Z,16.07
2022-11-29T00:28:59.526Z,16.17
2022-11-29T00:31:32.765Z,16.23
2022-11-29T00:34:01.094Z,15.73
2022-11-29T00:36:28.168Z,17.17
2022-11-29T00:38:54.503Z,15.80
2022-11-29T00:41:20.881Z,16.70
2022-11-29T00:43:47.255Z,16.53
2022-11-29T00:46:13.720Z,17.30
2022-11-29T00:48:40.172Z,15.87
2022-11-29T00:51:07.169Z,16.37
2022-11-29T00:53:35.348Z,16.80
2022-11-29T00:56:02.229Z,16.53
2022-11-29T00:58:28.871Z,16.80
2022-11-29T01:00:55.975Z,18.13
2022-11-29T01:03:23.033Z,15.40
2022-11-29T01:05:49.822Z,15.47
2022-11-29T01:08:17.189Z,17.50
2022-11-29T01:10:43.633Z,15.67
2022-11-29T01:13:10.849Z,16.53
2022-11-29T01:15:37.483Z,17.13
2022-11-29T01:18:04.294Z,16.20
2022-11-29T01:20:30.649Z,16.50
2022-11-29T01:22:56.983Z,17.03
2022-11-29T01:25:23.451Z,16.70
2022-11-29T01:27:49.827Z,17.37
2022-11-29T01:30:16.386Z,19.43
2022-11-29T01:32:42.968Z,18.60
2022-11-29T01:35:09.408Z,16.93
2022-11-29T01:37:35.872Z,17.00
2022-11-29T01:40:02.389Z,18.07
2022-11-29T01:42:28.929Z,20.03
2022-11-29T01:45:04.838Z,17.73
2022-11-29T01:47:32.281Z,18.93
2022-11-29T01:49:59.864Z,18.67
2022-11-29T01:52:30.780Z,18.13
2022-11-29T01:55:01.664Z,18.93
2022-11-29T01:57:28.801Z,16.37
2022-11-29T02:00:02.174Z,16.90
2022-11-29T02:02:36.841Z,16.60
2022-11-29T02:05:04.106Z,16.00
2022-11-29T02:07:31.009Z,16.83
2022-11-29T02:09:57.415Z,16.13
2022-11-29T02:12:38.178Z,15.30
2022-11-29T02:15:13.580Z,16.07
2022-11-29T02:17:52.243Z,16.20
2022-11-29T02:20:55.448Z,16.07
2022-11-29T02:23:51.262Z,16.77
2022-11-29T02:26:28.800Z,15.80
2022-11-29T02:29:20.974Z,15.23
2022-11-29T02:32:08.346Z,15.60
2022-11-29T02:35:00.538Z,15.07
2022-11-29T02:37:48.427Z,16.00
2022-11-29T02:40:24.190Z,15.80
2022-11-29T02:43:18.494Z,15.63
2022-11-29T02:46:16.730Z,15.60
2022-11-29T02:48:55.533Z,16.50
2022-11-29T02:51:48.246Z,16.70
2022-11-29T02:54:44.471Z,16.83
2022-11-29T02:57:41.050Z,16.07
2022-11-29T03:00:17.758Z,16.87
2022-11-29T03:03:03.298Z,16.90
2022-11-29T03:05:41.893Z,16.03
2022-11-29T03:08:11.227Z,16.40
2022-11-29T03:11:04.810Z,15.70
2022-11-29T03:13:50.923Z,14.80
2022-11-29T03:16:30.119Z,17.70
2022-11-29T03:19:17.453Z,16.83
2022-11-29T03:22:10.166Z,16.67
2022-11-29T03:24:49.408Z,16.27
2022-11-29T03:27:28.660Z,17.10
2022-11-29T03:29:58.813Z,16.27
2022-11-29T03:32:34.810Z,16.40
2022-11-29T03:35:09.998Z,15.73
2022-11-29T03:37:47.892Z,16.47
2022-11-29T03:40:22.300Z,16.63
2022-11-29T03:42:55.055Z,16.90
2022-11-29T03:45:32.792Z,16.33
2022-11-29T03:48:11.534Z,17.67
2022-11-29T03:50:43.166Z,16.43
2022-11-29T03:53:20.110Z,16.43
2022-11-29T03:55:48.940Z,17.80
2022-11-29T03:58:52.499Z,17.57
2022-11-29T04:01:37.442Z,16.33
2022-11-29T04:04:22.630Z,16.13
2022-11-29T04:07:16.220Z,16.93
2022-11-29T04:10:04.535Z,17.43
2022-11-29T04:13:08.668Z,16.43
2022-11-29T04:16:10.137Z,14.80
2022-11-29T04:18:58.023Z,16.03
2022-11-29T04:21:32.278Z,15.30
2022-11-29T04:24:36.288Z,16.47
2022-11-29T04:27:19.943Z,16.80
2022-11-29T04:30:05.035Z,16.73
2022-11-29T04:33:15.026Z,14.50
2022-11-29T04:36:14.187Z,15.97
2022-11-29T04:39:02.906Z,16.03
2022-11-29T04:41:32.177Z,17.77
2022-11-29T04:44:09.365Z,15.37
2022-11-29T04:47:11.695Z,16.27
2022-11-29T04:50:15.697Z,15.27
2022-11-29T04:52:45.016Z,16.27
2022-11-29T04:55:40.398Z,14.30
2022-11-29T04:58:30.170Z,14.87
2022-11-29T05:01:39.774Z,15.80
2022-11-29T05:04:23.405Z,14.37
2022-11-29T05:07:02.941Z,15.80
2022-11-29T05:09:55.267Z,15.37
2022-11-29T05:12:28.391Z,14.80
2022-11-29T05:15:29.098Z,15.10
2022-11-29T05:18:00.166Z,15.90
2022-11-29T05:20:44.978Z,14.63
2022-11-29T05:24:11.964Z,15.73
2022-11-29T05:26:49.051Z,15.80
2022-11-29T05:29:50.219Z,14.63
2022-11-29T05:32:32.545Z,14.20
2022-11-29T05:35:35.593Z,15.03
2022-11-29T05:38:29.744Z,15.03
2022-11-29T05:41:21.106Z,14.93
2022-11-29T05:44:15.461Z,14.27
2022-11-29T05:47:02.657Z,14.97
2022-11-29T05:49:38.029Z,15.37
2022-11-29T05:52:34.820Z,14.47
2022-11-29T05:55:44.931Z,14.80
2022-11-29T05:58:38.949Z,13.20
2022-11-29T06:01:25.967Z,12.33
2022-11-29T06:04:10.336Z,14.10
2022-11-29T06:06:47.669Z,13.60
2022-11-29T06:09:21.638Z,14.70
2022-11-29T06:11:58.047Z,13.67
2022-11-29T06:15:00.781Z,14.67
2022-11-29T06:17:55.114Z,14.60
2022-11-29T06:20:39.696Z,14.73
2022-11-29T06:23:15.265Z,15.30
2022-11-29T06:25:48.329Z,15.73
2022-11-29T06:28:56.128Z,15.20
2022-11-29T06:31:31.903Z,16.67
2022-11-29T06:34:17.088Z,15.43
2022-11-29T06:36:46.445Z,12.57
2022-11-29T06:39:13.204Z,14.23
2022-11-29T06:41:39.589Z,14.30
2022-11-29T06:44:06.561Z,14.27
2022-11-29T06:47:00.947Z,16.23
2022-11-29T06:49:32.938Z,13.90
2022-11-29T06:52:08.471Z,13.70
2022-11-29T06:55:02.704Z,14.20
2022-11-29T06:57:41.862Z,15.07
2022-11-29T07:00:23.833Z,13.00
2022-11-29T07:03:24.057Z,14.50
2022-11-29T07:05:50.834Z,13.40
2022-11-29T07:08:20.793Z,13.60
2022-11-29T07:10:50.027Z,14.80
2022-11-29T07:13:20.453Z,13.83
2022-11-29T07:15:49.873Z,14.10
2022-11-29T07:18:35.658Z,14.07
2022-11-29T07:21:14.256Z,12.80
2022-11-29T07:23:57.319Z,13.17
2022-11-29T07:26:59.405Z,12.87
2022-11-29T07:29:39.532Z,12.63
2022-11-29T07:32:24.155Z,11.60
2022-11-29T07:35:09.290Z,13.20
2022-11-29T07:37:41.221Z,11.03
2022-11-29T07:40:37.144Z,11.50
2022-11-29T07:43:25.447Z,11.23
2022-11-29T07:45:52.072Z,11.83
2022-11-29T07:48:18.481Z,12.23
2022-11-29T07:50:45.350Z,12.00
2022-11-29T07:53:18.044Z,11.00
2022-11-29T07:55:44.960Z,11.20
2022-11-29T07:58:13.194Z,10.77
2022-11-29T08:00:41.988Z,10.73
2022-11-29T08:03:09.450Z,10.07
2022-11-29T08:05:37.145Z,10.00
2022-11-29T08:08:04.258Z,9.80
2022-11-29T08:10:30.745Z,11.10
2022-11-29T08:12:57.294Z,9.90
2022-11-29T08:15:25.015Z,8.70
2022-11-29T08:17:53.024Z,9.17
2022-11-29T08:20:19.759Z,12.17
2022-11-29T08:22:53.927Z,17.23
2022-11-29T08:25:20.260Z,14.30
2022-11-29T08:27:46.602Z,8.30
2022-11-29T08:30:13.226Z,7.87
2022-11-29T08:32:39.629Z,6.60
2022-11-29T08:35:06.120Z,7.23
2022-11-29T08:37:32.464Z,7.67
2022-11-29T08:39:59.018Z,6.07
2022-11-29T08:42:25.419Z,6.53
2022-11-29T08:44:51.959Z,6.33
2022-11-29T08:47:36.244Z,6.37
2022-11-29T08:50:17.826Z,5.60
2022-11-29T08:53:05.203Z,5.57
2022-11-29T08:55:35.475Z,6.20
2022-11-29T08:58:04.814Z,5.97
2022-11-29T09:00:32.433Z,6.90
2022-11-29T09:03:19.267Z,7.23
2022-11-29T09:05:45.945Z,6.47
2022-11-29T09:08:12.329Z,6.20
2022-11-29T09:10:40.114Z,7.80
2022-11-29T09:13:07.971Z,5.97
2022-11-29T09:15:34.501Z,5.90
2022-11-29T09:18:00.843Z,6.07
2022-11-29T09:20:27.212Z,6.70
2022-11-29T09:22:53.573Z,6.70
2022-11-29T09:25:19.917Z,7.13
2022-11-29T09:27:46.367Z,6.27
2022-11-29T09:30:13.063Z,6.10
2022-11-29T09:32:39.412Z,5.90
2022-11-29T09:35:06.194Z,5.30
2022-11-29T09:37:33.117Z,5.80
2022-11-29T09:39:59.521Z,5.70
2022-11-29T09:42:47.520Z,5.83
2022-11-29T09:45:19.445Z,6.17
2022-11-29T09:48:01.123Z,5.83
2022-11-29T09:50:34.924Z,5.33
2022-11-29T09:53:21.082Z,4.87
2022-11-29T09:56:05.418Z,6.00
2022-11-29T09:58:40.561Z,5.03
2022-11-29T10:01:13.311Z,5.50
2022-11-29T10:03:47.027Z,4.90
2022-11-29T10:06:13.325Z,5.33
2022-11-29T10:08:47.043Z,5.77
2022-11-29T10:11:28.247Z,6.63
2022-11-29T10:14:01.325Z,6.50
2022-11-29T10:17:00.236Z,6.27
2022-11-29T10:19:36.332Z,5.90
2022-11-29T10:22:07.590Z,5.67
2022-11-29T10:24:34.382Z,5.30
2022-11-29T10:27:00.946Z,5.10
2022-11-29T10:29:27.453Z,4.90
2022-11-29T10:31:56.610Z,5.67
2022-11-29T10:34:25.577Z,4.00
2022-11-29T10:37:02.192Z,3.97
2022-11-29T10:39:39.706Z,4.60
2022-11-29T10:42:34.554Z,4.30
2022-11-29T10:45:01.705Z,4.80
2022-11-29T10:47:28.333Z,4.43
2022-11-29T10:49:54.803Z,4.33
2022-11-29T10:52:23.254Z,4.07
2022-11-29T10:54:53.581Z,4.90
2022-11-29T10:57:22.346Z,4.00
2022-11-29T10:59:59.792Z,2.90
2022-11-29T11:02:27.708Z,2.97
2022-11-29T11:04:54.484Z,2.70
2022-11-29T11:07:40.683Z,4.47
2022-11-29T11:10:27.282Z,3.40
2022-11-29T11:13:20.439Z,2.87
2022-11-29T11:15:47.011Z,3.10
2022-11-29T11:18:26.597Z,3.33
2022-11-29T11:20:56.412Z,3.50
2022-11-29T11:23:25.996Z,3.10
2022-11-29T11:26:07.505Z,2.90
2022-11-29T11:28:48.350Z,3.10
2022-11-29T11:31:15.133Z,3.57
2022-11-29T11:33:46.005Z,2.90
2022-11-29T11:36:12.525Z,3.40
2022-11-29T11:38:51.432Z,3.77
2022-11-29T11:41:47.493Z,7.93
2022-11-29T11:44:47.224Z,4.77
2022-11-29T11:47:19.802Z,4.43
2022-11-29T11:50:11.289Z,3.87
2022-11-29T11:52:50.722Z,3.37
2022-11-29T11:55:40.454Z,3.47
2022-11-29T11:58:12.495Z,2.90
2022-11-29T12:01:04.082Z,4.50
2022-11-29T12:03:49.728Z,3.30
2022-11-29T12:06:28.550Z,3.63
2022-11-29T12:09:23.317Z,4.10
2022-11-29T12:12:00.323Z,3.43
2022-11-29T12:14:36.569Z,3.40
2022-11-29T12:17:37.100Z,4.23
2022-11-29T12:20:12.797Z,3.07
2022-11-29T12:22:51.712Z,3.50
2022-11-29T12:25:25.069Z,7.90
2022-11-29T12:27:51.980Z,6.47
2022-11-29T12:30:19.311Z,4.70
2022-11-29T12:33:06.879Z,2.93
2022-11-29T12:35:39.716Z,3.13
2022-11-29T12:38:23.692Z,3.47
2022-11-29T12:40:53.277Z,3.37
2022-11-29T12:43:22.648Z,2.73
2022-11-29T12:46:16.568Z,3.53
2022-11-29T12:48:45.964Z,3.23
2022-11-29T12:51:31.090Z,5.20
2022-11-29T12:54:18.265Z,3.20
2022-11-29T12:56:59.067Z,2.90
2022-11-29T12:59:43.044Z,2.53
2022-11-29T13:02:22.011Z,3.17
2022-11-29T13:05:19.301Z,2.70
2022-11-29T13:08:07.473Z,2.43
2022-11-29T13:10:58.341Z,1.30
2022-11-29T13:13:38.928Z,1.30
2022-11-29T13:16:31.504Z,1.30
2022-11-29T13:19:04.107Z,1.20
2022-11-29T13:21:45.651Z,1.37
2022-11-29T13:24:28.962Z,1.67
2022-11-29T13:26:56.774Z,1.30
2022-11-29T13:29:24.044Z,1.50
2022-11-29T13:31:51.586Z,1.00
2022-11-29T13:34:26.567Z,1.50
2022-11-29T13:37:04.782Z,1.20
2022-11-29T13:39:53.137Z,1.30
2022-11-29T13:42:27.956Z,1.40
2022-11-29T13:45:26.493Z,1.40
2022-11-29T13:47:59.889Z,1.73
2022-11-29T13:50:39.268Z,1.50
2022-11-29T13:53:18.939Z,1.70
2022-11-29T13:55:49.727Z,1.40
2022-11-29T13:58:17.734Z,1.60
2022-11-29T14:00:44.537Z,1.90
2022-11-29T14:03:23.176Z,2.13
2022-11-29T14:05:52.350Z,1.53
2022-11-29T14:09:02.037Z,2.37
2022-11-29T14:11:25.167Z,1.60
2022-11-29T14:13:59.220Z,2.00
2022-11-29T14:16:34.678Z,1.33
2022-11-29T14:19:10.293Z,1.87
2022-11-29T14:22:02.973Z,1.60
2022-11-29T14:24:35.007Z,1.90
2022-11-29T14:27:12.103Z,1.80
2022-11-29T14:29:47.529Z,1.87
2022-11-29T14:32:35.670Z,1.70
2022-11-29T14:35:42.922Z,1.60
2022-11-29T14:38:29.214Z,2.30
2022-11-29T14:41:13.758Z,1.37
2022-11-29T14:43:43.151Z,1.70
2022-11-29T14:46:29.281Z,1.70
2022-11-29T14:48:55.983Z,1.90
2022-11-29T14:51:25.591Z,2.00
2022-11-29T14:54:21.293Z,2.20
2022-11-29T14:56:47.718Z,1.97
2022-11-29T14:59:45.082Z,1.90
2022-11-29T15:02:37.219Z,2.00
2022-11-29T15:05:24.392Z,1.60
2022-11-29T15:08:03.382Z,1.30
2022-11-29T15:10:34.747Z,1.40
2022-11-29T15:13:02.906Z,1.43
2022-11-29T15:15:32.217Z,1.30
2022-11-29T15:18:24.320Z,1.27
2022-11-29T15:21:19.153Z,1.47
2022-11-29T15:23:45.690Z,1.30
2022-11-29T15:26:18.459Z,1.20
2022-11-29T15:28:45.419Z,1.23
2022-11-29T15:31:16.254Z,1.70
2022-11-29T15:33:45.809Z,1.80
2022-11-29T15:36:17.837Z,1.20
2022-11-29T15:38:51.686Z,1.40
2022-11-29T15:41:34.002Z,1.30
2022-11-29T15:44:03.334Z,1.37
2022-11-29T15:46:32.072Z,1.33
2022-11-29T15:49:33.737Z,1.23
2022-11-29T15:52:05.970Z,1.40
2022-11-29T15:54:37.570Z,1.30
2022-11-29T15:57:23.676Z,2.20
2022-11-29T15:59:55.668Z,1.80
2022-11-29T16:02:48.497Z,1.80
2022-11-29T16:05:26.621Z,2.23
2022-11-29T16:08:00.337Z,2.17
2022-11-29T16:10:36.738Z,1.90
2022-11-29T16:13:26.228Z,1.80
2022-11-29T16:16:13.949Z,2.20
2022-11-29T16:18:42.917Z,2.60
2022-11-29T16:21:31.931Z,3.17
2022-11-29T16:24:10.074Z,3.10
2022-11-29T16:26:41.392Z,3.00
2022-11-29T16:29:26.470Z,2.87
2022-11-29T16:31:53.523Z,3.30
2022-11-29T16:34:27.787Z,3.10
2022-11-29T16:37:02.848Z,2.73
2022-11-29T16:39:30.211Z,3.27
2022-11-29T16:42:29.217Z,2.80
2022-11-29T16:45:31.032Z,2.83
2022-11-29T16:48:01.367Z,2.73
2022-11-29T16:50:29.709Z,3.40
2022-11-29T16:52:57.135Z,3.27
2022-11-29T16:55:24.263Z,3.13
2022-11-29T16:57:51.939Z,3.13
2022-11-29T17:00:23.266Z,2.87
2022-11-29T17:02:50.185Z,3.00
2022-11-29T17:05:16.621Z,3.20
2022-11-29T17:07:43.727Z,3.60
2022-11-29T17:10:16.387Z,3.40
2022-11-29T17:12:47.822Z,3.83
2022-11-29T17:15:14.735Z,3.60
2022-11-29T17:17:42.380Z,4.00
2022-11-29T17:20:13.951Z,4.17
2022-11-29T17:22:40.669Z,4.17
2022-11-29T17:25:07.478Z,4.10
2022-11-29T17:27:34.017Z,4.00
2022-11-29T17:30:00.386Z,3.90
2022-11-29T17:32:27.176Z,3.53
2022-11-29T17:34:53.818Z,4.30
2022-11-29T17:37:20.191Z,14.40
2022-11-29T17:39:48.953Z,40.70
2022-11-29T17:42:15.566Z,10.17
2022-11-29T17:44:42.032Z,10.40
2022-11-29T17:47:08.404Z,5.67
2022-11-29T17:49:34.747Z,6.90
2022-11-29T17:52:01.162Z,5.40
2022-11-29T17:54:27.548Z,8.43
2022-11-29T17:56:54.102Z,5.20
2022-11-29T17:59:20.551Z,4.57
2022-11-29T18:01:47.463Z,4.47
2022-11-29T18:04:14.087Z,5.40
2022-11-29T18:06:41.324Z,6.30
2022-11-29T18:09:09.890Z,6.40
2022-11-29T18:11:46.909Z,4.13
2022-11-29T18:14:17.229Z,6.23
2022-11-29T18:16:45.249Z,5.97
2022-11-29T18:19:14.158Z,6.60
2022-11-29T18:21:40.576Z,5.70
2022-11-29T18:24:07.843Z,5.33
2022-11-29T18:26:35.650Z,5.33
2022-11-29T18:29:02.242Z,4.60
2022-11-29T18:31:34.112Z,5.10
2022-11-29T18:34:02.558Z,4.20
2022-11-29T18:36:32.396Z,3.97
2022-11-29T18:39:01.156Z,4.80
2022-11-29T18:41:29.053Z,7.23
2022-11-29T18:44:17.010Z,5.47
2022-11-29T18:46:44.821Z,6.13
2022-11-29T18:49:13.910Z,5.57
2022-11-29T18:51:42.855Z,8.47
2022-11-29T18:54:09.470Z,7.17
2022-11-29T18:56:36.777Z,5.33
2022-11-29T18:59:10.113Z,5.43
2022-11-29T19:01:41.040Z,5.63
2022-11-29T19:04:10.143Z,5.63
2022-11-29T19:06:40.003Z,4.70
2022-11-29T19:09:09.556Z,5.33
2022-11-29T19:11:35.931Z,5.73
2022-11-29T19:14:06.340Z,5.97
2022-11-29T19:16:34.373Z,5.40
2022-11-29T19:19:01.229Z,5.30
2022-11-29T19:21:29.664Z,5.63
2022-11-29T19:23:58.553Z,6.23
2022-11-29T19:26:27.677Z,6.53
2022-11-29T19:28:54.658Z,5.47
2022-11-29T19:31:24.866Z,5.43
2022-11-29T19:33:52.720Z,6.47
2022-11-29T19:36:27.901Z,6.60
2022-11-29T19:38:54.829Z,6.53
2022-11-29T19:41:30.005Z,7.07
2022-11-29T19:43:58.008Z,6.87
2022-11-29T19:46:27.001Z,6.57
2022-11-29T19:48:56.026Z,6.87
2022-11-29T19:51:23.518Z,6.70
2022-11-29T19:53:58.367Z,7.10
2022-11-29T19:56:25.378Z,7.43
2022-11-29T19:58:55.350Z,8.57
2022-11-29T20:01:36.055Z,8.63
2022-11-29T20:04:06.284Z,7.83
2022-11-29T20:06:32.997Z,7.80
2022-11-29T20:09:00.717Z,8.10
2022-11-29T20:11:30.054Z,9.67
2022-11-29T20:14:01.360Z,9.07
2022-11-29T20:16:29.703Z,8.27
2022-11-29T20:18:56.597Z,8.43
2022-11-29T20:21:28.831Z,7.47
2022-11-29T20:24:03.571Z,9.33
2022-11-29T20:26:31.774Z,8.43
2022-11-29T20:29:00.311Z,13.33
2022-11-29T20:31:27.025Z,10.53
2022-11-29T20:33:57.038Z,8.60
2022-11-29T20:36:42.338Z,7.77
2022-11-29T20:39:50.305Z,8.37
2022-11-29T20:42:28.868Z,9.13
2022-11-29T20:45:01.262Z,9.60
2022-11-29T20:47:33.487Z,10.07
2022-11-29T20:49:59.979Z,9.53
2022-11-29T20:52:32.691Z,9.30
2022-11-29T20:54:59.023Z,8.70
2022-11-29T20:57:25.369Z,9.03
2022-11-29T20:59:51.682Z,8.50
2022-11-29T21:02:18.092Z,9.07
2022-11-29T21:04:44.702Z,7.57
2022-11-29T21:07:11.267Z,7.00
2022-11-29T21:09:37.815Z,7.77
2022-11-29T21:12:04.596Z,8.43
2022-11-29T21:14:31.199Z,8.30
2022-11-29T21:16:57.879Z,7.50
2022-11-29T21:19:25.713Z,8.10
2022-11-29T21:22:46.823Z,7.60
2022-11-29T21:25:48.317Z,7.70
2022-11-29T21:28:16.385Z,8.30
2022-11-29T21:30:43.532Z,7.70
2022-11-29T21:33:11.225Z,7.40
2022-11-29T21:35:39.727Z,7.77
2022-11-29T21:38:12.341Z,11.20
2022-11-29T21:40:38.660Z,7.77
2022-11-29T21:43:04.989Z,8.17
2022-11-29T21:45:31.337Z,9.03
2022-11-29T21:48:00.584Z,8.83
2022-11-29T21:50:27.110Z,8.37
2022-11-29T21:52:53.465Z,8.27
2022-11-29T21:55:19.806Z,8.20
2022-11-29T21:57:46.180Z,9.30
2022-11-29T22:00:13.135Z,8.30
2022-11-29T22:02:39.681Z,8.37
2022-11-29T22:05:07.876Z,8.23
2022-11-29T22:07:34.245Z,8.77
2022-11-29T22:10:09.945Z,8.40
2022-11-29T22:12:42.852Z,7.97
2022-11-29T22:15:13.883Z,9.13
2022-11-29T22:17:40.227Z,8.10
2022-11-29T22:20:07.462Z,8.20
2022-11-29T22:22:34.010Z,8.50
2022-11-29T22:25:00.390Z,9.17
2022-11-29T22:27:26.925Z,8.60
2022-11-29T22:29:53.287Z,9.67
2022-11-29T22:32:19.604Z,8.87
2022-11-29T22:34:46.276Z,8.13
2022-11-29T22:37:12.815Z,8.20
2022-11-29T22:39:39.323Z,8.03
2022-11-29T22:42:05.705Z,8.93
2022-11-29T22:44:32.033Z,7.80
2022-11-29T22:46:58.476Z,8.20
2022-11-29T22:49:24.839Z,7.70
2022-11-29T22:51:52.220Z,8.00
2022-11-29T22:54:18.641Z,7.77
2022-11-29T22:56:45.810Z,6.77
2022-11-29T22:59:12.723Z,6.67
2022-11-29T23:01:41.059Z,6.93
2022-11-29T23:04:08.247Z,7.10
2022-11-29T23:06:37.267Z,7.00
2022-11-29T23:09:15.652Z,7.20
2022-11-29T23:11:43.877Z,6.93
2022-11-29T23:14:10.471Z,8.03
2022-11-29T23:16:36.924Z,8.07
2022-11-29T23:19:03.529Z,8.20
2022-11-29T23:21:32.731Z,6.97
2022-11-29T23:24:02.317Z,7.83
2022-11-29T23:26:40.569Z,8.20
2022-11-29T23:29:10.631Z,7.60
2022-11-29T23:31:37.295Z,7.53
2022-11-29T23:34:03.834Z,7.97
2022-11-29T23:36:30.600Z,7.60
2022-11-29T23:38:57.117Z,8.80
2022-11-29T23:41:23.568Z,7.80
2022-11-29T23:43:50.052Z,8.03
2022-11-29T23:46:19.317Z,7.80
2022-11-29T23:48:46.432Z,8.50
2022-11-29T23:51:13.363Z,8.43
2022-11-29T23:53:41.116Z,8.97
2022-11-29T23:56:11.993Z,7.83
2022-11-29T23:58:38.446Z,8.10
